sensor_id;sensor_type;location;lat;lon;timestamp;pressure;altitude;pressure_sealevel;temperature;humidity
43298;BME280;28892;55.640;37.532;2023-02-20T00:00:00;96607.34;;;-3.93;61.85
43298;BME280;28892;55.640;37.532;2023-02-20T00:02:25;96615.22;;;-3.76;61.76
43298;BME280;28892;55.640;37.532;2023-02-20T00:04:51;96611.00;;;-3.77;61.46
43298;BME280;28892;55.640;37.532;2023-02-20T00:07:17;96619.03;;;-3.89;61.55
43298;BME280;28892;55.640;37.532;2023-02-20T00:09:43;96616.56;;;-3.99;61.79
43298;BME280;28892;55.640;37.532;2023-02-20T00:12:08;96611.06;;;-3.96;62.00
43298;BME280;28892;55.640;37.532;2023-02-20T00:14:34;96611.56;;;-3.92;61.70
43298;BME280;28892;55.640;37.532;2023-02-20T00:17:00;96605.59;;;-3.93;61.69
43298;BME280;28892;55.640;37.532;2023-02-20T00:19:25;96609.06;;;-4.10;61.64
43298;BME280;28892;55.640;37.532;2023-02-20T00:21:51;96611.53;;;-4.00;61.90
43298;BME280;28892;55.640;37.532;2023-02-20T00:24:17;96615.75;;;-3.99;62.12
43298;BME280;28892;55.640;37.532;2023-02-20T00:26:48;96616.56;;;-3.99;62.18
43298;BME280;28892;55.640;37.532;2023-02-20T00:29:19;96611.69;;;-4.02;61.87
43298;BME280;28892;55.640;37.532;2023-02-20T00:31:56;96613.00;;;-3.98;62.05
43298;BME280;28892;55.640;37.532;2023-02-20T00:34:28;96610.22;;;-4.04;62.16
43298;BME280;28892;55.640;37.532;2023-02-20T00:36:54;96606.16;;;-4.07;62.34
43298;BME280;28892;55.640;37.532;2023-02-20T00:39:20;96617.94;;;-4.13;62.31
43298;BME280;28892;55.640;37.532;2023-02-20T00:41:45;96612.75;;;-4.13;62.32
43298;BME280;28892;55.640;37.532;2023-02-20T00:44:11;96610.47;;;-4.16;62.31
43298;BME280;28892;55.640;37.532;2023-02-20T00:46:37;96610.97;;;-4.12;62.26
43298;BME280;28892;55.640;37.532;2023-02-20T00:49:03;96608.84;;;-4.17;62.39
43298;BME280;28892;55.640;37.532;2023-02-20T00:51:45;96602.56;;;-4.14;62.25
43298;BME280;28892;55.640;37.532;2023-02-20T00:54:11;96611.63;;;-4.10;62.54
43298;BME280;28892;55.640;37.532;2023-02-20T00:56:37;96604.66;;;-4.18;62.48
43298;BME280;28892;55.640;37.532;2023-02-20T00:59:03;96606.81;;;-4.05;62.64
43298;BME280;28892;55.640;37.532;2023-02-20T01:01:28;96599.19;;;-4.07;61.88
43298;BME280;28892;55.640;37.532;2023-02-20T01:03:54;96601.06;;;-3.90;61.74
43298;BME280;28892;55.640;37.532;2023-02-20T01:06:20;96599.06;;;-3.97;61.79
43298;BME280;28892;55.640;37.532;2023-02-20T01:08:46;96600.44;;;-3.84;61.72
43298;BME280;28892;55.640;37.532;2023-02-20T01:11:11;96594.06;;;-3.98;61.89
43298;BME280;28892;55.640;37.532;2023-02-20T01:13:38;96602.34;;;-3.95;61.96
43298;BME280;28892;55.640;37.532;2023-02-20T01:16:05;96600.63;;;-4.12;62.18
43298;BME280;28892;55.640;37.532;2023-02-20T01:18:31;96605.50;;;-4.09;62.09
43298;BME280;28892;55.640;37.532;2023-02-20T01:20:57;96602.25;;;-4.11;62.33
43298;BME280;28892;55.640;37.532;2023-02-20T01:23:23;96609.22;;;-4.12;62.52
43298;BME280;28892;55.640;37.532;2023-02-20T01:25:51;96603.41;;;-4.05;62.40
43298;BME280;28892;55.640;37.532;2023-02-20T01:28:17;96612.38;;;-3.91;62.15
43298;BME280;28892;55.640;37.532;2023-02-20T01:30:43;96610.88;;;-4.02;62.26
43298;BME280;28892;55.640;37.532;2023-02-20T01:33:09;96612.34;;;-4.00;62.31
43298;BME280;28892;55.640;37.532;2023-02-20T01:35:34;96614.88;;;-4.08;62.47
43298;BME280;28892;55.640;37.532;2023-02-20T01:38:01;96611.22;;;-3.97;62.27
43298;BME280;28892;55.640;37.532;2023-02-20T01:40:32;96613.16;;;-3.99;62.49
43298;BME280;28892;55.640;37.532;2023-02-20T01:43:01;96613.44;;;-4.11;62.50
43298;BME280;28892;55.640;37.532;2023-02-20T01:45:34;96617.53;;;-4.00;62.68
43298;BME280;28892;55.640;37.532;2023-02-20T01:48:01;96607.94;;;-4.08;62.74
43298;BME280;28892;55.640;37.532;2023-02-20T01:50:31;96613.00;;;-3.98;62.55
43298;BME280;28892;55.640;37.532;2023-02-20T01:53:03;96613.19;;;-3.91;62.27
43298;BME280;28892;55.640;37.532;2023-02-20T01:55:54;96619.88;;;-3.80;62.37
43298;BME280;28892;55.640;37.532;2023-02-20T01:58:28;96605.31;;;-3.81;62.07
43298;BME280;28892;55.640;37.532;2023-02-20T02:00:56;96604.50;;;-3.82;62.13
43298;BME280;28892;55.640;37.532;2023-02-20T02:03:35;96607.91;;;-3.81;62.41
43298;BME280;28892;55.640;37.532;2023-02-20T02:06:05;96610.91;;;-3.94;62.42
43298;BME280;28892;55.640;37.532;2023-02-20T02:08:33;96622.84;;;-4.01;62.91
43298;BME280;28892;55.640;37.532;2023-02-20T02:11:07;96614.94;;;-4.00;62.66
43298;BME280;28892;55.640;37.532;2023-02-20T02:13:35;96617.66;;;-4.01;62.82
43298;BME280;28892;55.640;37.532;2023-02-20T02:32:31;96627.38;;;-4.03;62.52
43298;BME280;28892;55.640;37.532;2023-02-20T02:38:16;96624.84;;;-4.22;62.82
43298;BME280;28892;55.640;37.532;2023-02-20T02:48:00;96644.16;;;-3.81;61.66
43298;BME280;28892;55.640;37.532;2023-02-20T02:50:36;96640.75;;;-3.82;61.59
43298;BME280;28892;55.640;37.532;2023-02-20T02:53:06;96639.59;;;-3.87;61.67
43298;BME280;28892;55.640;37.532;2023-02-20T02:55:33;96634.03;;;-4.01;62.20
43298;BME280;28892;55.640;37.532;2023-02-20T02:57:59;96644.91;;;-3.97;61.82
43298;BME280;28892;55.640;37.532;2023-02-20T03:03:17;96648.25;;;-3.79;61.84
43298;BME280;28892;55.640;37.532;2023-02-20T03:06:02;96637.25;;;-3.72;61.39
43298;BME280;28892;55.640;37.532;2023-02-20T03:08:43;96636.84;;;-3.86;61.43
43298;BME280;28892;55.640;37.532;2023-02-20T03:11:15;96650.28;;;-3.90;61.69
43298;BME280;28892;55.640;37.532;2023-02-20T03:13:51;96639.63;;;-3.79;61.22
43298;BME280;28892;55.640;37.532;2023-02-20T03:19:28;96639.31;;;-4.11;62.07
43298;BME280;28892;55.640;37.532;2023-02-20T03:21:56;96635.31;;;-4.05;61.68
43298;BME280;28892;55.640;37.532;2023-02-20T03:24:31;96643.78;;;-4.21;61.99
43298;BME280;28892;55.640;37.532;2023-02-20T03:27:47;96648.84;;;-4.11;61.94
43298;BME280;28892;55.640;37.532;2023-02-20T03:30:16;96641.69;;;-4.17;61.79
43298;BME280;28892;55.640;37.532;2023-02-20T03:32:46;96646.38;;;-4.21;61.77
43298;BME280;28892;55.640;37.532;2023-02-20T03:35:34;96645.50;;;-4.03;61.29
43298;BME280;28892;55.640;37.532;2023-02-20T03:38:22;96638.63;;;-4.13;61.30
43298;BME280;28892;55.640;37.532;2023-02-20T03:41:10;96650.22;;;-4.25;61.57
43298;BME280;28892;55.640;37.532;2023-02-20T03:43:58;96654.53;;;-4.34;61.42
43298;BME280;28892;55.640;37.532;2023-02-20T03:46:26;96643.00;;;-4.40;61.97
43298;BME280;28892;55.640;37.532;2023-02-20T03:48:59;96641.00;;;-4.28;61.96
43298;BME280;28892;55.640;37.532;2023-02-20T03:51:27;96643.06;;;-4.31;61.73
43298;BME280;28892;55.640;37.532;2023-02-20T03:54:22;96642.38;;;-4.33;61.97
43298;BME280;28892;55.640;37.532;2023-02-20T03:56:53;96641.19;;;-4.47;62.16
43298;BME280;28892;55.640;37.532;2023-02-20T03:59:27;96662.59;;;-4.55;62.69
43298;BME280;28892;55.640;37.532;2023-02-20T04:01:57;96646.50;;;-4.49;62.51
43298;BME280;28892;55.640;37.532;2023-02-20T04:04:33;96652.63;;;-4.50;62.55
43298;BME280;28892;55.640;37.532;2023-02-20T04:07:07;96647.50;;;-4.24;61.79
43298;BME280;28892;55.640;37.532;2023-02-20T04:09:42;96645.59;;;-4.13;60.97
43298;BME280;28892;55.640;37.532;2023-02-20T04:12:30;96637.53;;;-4.10;61.03
43298;BME280;28892;55.640;37.532;2023-02-20T04:14:58;96653.13;;;-4.28;61.32
43298;BME280;28892;55.640;37.532;2023-02-20T04:17:32;96650.16;;;-4.33;61.52
43298;BME280;28892;55.640;37.532;2023-02-20T04:20:02;96656.19;;;-4.51;61.59
43298;BME280;28892;55.640;37.532;2023-02-20T04:22:32;96658.03;;;-4.17;61.01
43298;BME280;28892;55.640;37.532;2023-02-20T04:25:37;96662.16;;;-4.32;61.55
43298;BME280;28892;55.640;37.532;2023-02-20T04:28:06;96670.81;;;-4.42;60.88
43298;BME280;28892;55.640;37.532;2023-02-20T04:30:43;96664.25;;;-4.54;61.34
43298;BME280;28892;55.640;37.532;2023-02-20T04:33:13;96660.91;;;-4.46;61.45
43298;BME280;28892;55.640;37.532;2023-02-20T04:35:40;96667.84;;;-4.47;61.33
43298;BME280;28892;55.640;37.532;2023-02-20T04:38:07;96669.25;;;-4.53;61.33
43298;BME280;28892;55.640;37.532;2023-02-20T04:40:34;96672.38;;;-4.49;61.22
43298;BME280;28892;55.640;37.532;2023-02-20T04:42:59;96654.63;;;-4.44;61.30
43298;BME280;28892;55.640;37.532;2023-02-20T04:45:28;96671.56;;;-4.50;60.97
43298;BME280;28892;55.640;37.532;2023-02-20T04:47:54;96665.72;;;-4.52;61.01
43298;BME280;28892;55.640;37.532;2023-02-20T04:50:29;96669.50;;;-4.64;60.94
43298;BME280;28892;55.640;37.532;2023-02-20T04:52:55;96658.72;;;-4.78;61.32
43298;BME280;28892;55.640;37.532;2023-02-20T04:55:23;96660.19;;;-4.93;61.78
43298;BME280;28892;55.640;37.532;2023-02-20T04:57:52;96656.78;;;-4.75;61.46
43298;BME280;28892;55.640;37.532;2023-02-20T05:00:40;96664.56;;;-4.94;61.89
43298;BME280;28892;55.640;37.532;2023-02-20T05:03:05;96665.13;;;-5.00;61.97
43298;BME280;28892;55.640;37.532;2023-02-20T05:05:31;96682.13;;;-4.97;62.41
43298;BME280;28892;55.640;37.532;2023-02-20T05:08:05;96667.50;;;-4.88;62.53
43298;BME280;28892;55.640;37.532;2023-02-20T05:10:33;96670.75;;;-4.50;61.58
43298;BME280;28892;55.640;37.532;2023-02-20T05:12:59;96672.19;;;-4.74;61.43
43298;BME280;28892;55.640;37.532;2023-02-20T05:15:27;96668.75;;;-4.56;61.40
43298;BME280;28892;55.640;37.532;2023-02-20T05:17:53;96679.94;;;-4.74;61.51
43298;BME280;28892;55.640;37.532;2023-02-20T05:20:19;96678.97;;;-4.73;61.90
43298;BME280;28892;55.640;37.532;2023-02-20T05:22:47;96687.69;;;-4.74;61.95
43298;BME280;28892;55.640;37.532;2023-02-20T05:25:14;96678.66;;;-4.52;61.80
43298;BME280;28892;55.640;37.532;2023-02-20T05:27:40;96669.28;;;-4.71;61.32
43298;BME280;28892;55.640;37.532;2023-02-20T05:30:10;96685.03;;;-4.64;61.63
43298;BME280;28892;55.640;37.532;2023-02-20T05:32:36;96677.31;;;-4.38;61.01
43298;BME280;28892;55.640;37.532;2023-02-20T05:35:02;96671.63;;;-4.41;60.69
43298;BME280;28892;55.640;37.532;2023-02-20T05:37:31;96677.91;;;-4.62;60.41
43298;BME280;28892;55.640;37.532;2023-02-20T05:39:59;96678.34;;;-4.67;60.92
43298;BME280;28892;55.640;37.532;2023-02-20T05:42:25;96687.69;;;-4.56;60.68
43298;BME280;28892;55.640;37.532;2023-02-20T05:44:50;96678.50;;;-4.50;60.77
43298;BME280;28892;55.640;37.532;2023-02-20T05:47:19;96685.47;;;-4.69;60.92
43298;BME280;28892;55.640;37.532;2023-02-20T05:49:48;96687.31;;;-4.61;60.98
43298;BME280;28892;55.640;37.532;2023-02-20T05:52:14;96692.56;;;-4.53;60.80
43298;BME280;28892;55.640;37.532;2023-02-20T05:54:40;96690.69;;;-4.42;60.37
43298;BME280;28892;55.640;37.532;2023-02-20T05:57:07;96700.19;;;-4.51;60.66
43298;BME280;28892;55.640;37.532;2023-02-20T05:59:33;96693.31;;;-4.60;61.07
43298;BME280;28892;55.640;37.532;2023-02-20T06:01:59;96689.75;;;-4.59;61.03
43298;BME280;28892;55.640;37.532;2023-02-20T06:04:26;96699.81;;;-4.38;60.66
43298;BME280;28892;55.640;37.532;2023-02-20T06:06:54;96693.75;;;-4.65;61.07
43298;BME280;28892;55.640;37.532;2023-02-20T06:09:21;96701.28;;;-4.54;61.51
43298;BME280;28892;55.640;37.532;2023-02-20T06:11:48;96712.06;;;-4.58;61.34
43298;BME280;28892;55.640;37.532;2023-02-20T06:14:15;96697.91;;;-4.54;61.02
43298;BME280;28892;55.640;37.532;2023-02-20T06:16:43;96711.53;;;-4.26;60.56
43298;BME280;28892;55.640;37.532;2023-02-20T06:19:10;96714.94;;;-4.25;60.60
43298;BME280;28892;55.640;37.532;2023-02-20T06:21:35;96712.50;;;-4.27;60.38
43298;BME280;28892;55.640;37.532;2023-02-20T06:24:05;96712.56;;;-4.37;59.96
43298;BME280;28892;55.640;37.532;2023-02-20T06:26:31;96727.16;;;-4.54;60.48
43298;BME280;28892;55.640;37.532;2023-02-20T06:29:32;96723.38;;;-4.41;60.59
43298;BME280;28892;55.640;37.532;2023-02-20T06:33:03;96715.81;;;-4.35;60.22
43298;BME280;28892;55.640;37.532;2023-02-20T06:35:32;96721.63;;;-4.41;60.42
43298;BME280;28892;55.640;37.532;2023-02-20T06:37:59;96733.06;;;-4.43;60.77
43298;BME280;28892;55.640;37.532;2023-02-20T06:40:28;96731.38;;;-4.16;60.58
43298;BME280;28892;55.640;37.532;2023-02-20T06:42:54;96712.78;;;-4.30;59.79
43298;BME280;28892;55.640;37.532;2023-02-20T06:45:19;96715.75;;;-4.25;59.77
43298;BME280;28892;55.640;37.532;2023-02-20T06:47:45;96718.28;;;-4.33;60.15
43298;BME280;28892;55.640;37.532;2023-02-20T06:50:11;96719.09;;;-4.32;60.17
43298;BME280;28892;55.640;37.532;2023-02-20T06:52:37;96722.84;;;-4.45;60.60
43298;BME280;28892;55.640;37.532;2023-02-20T06:55:03;96715.81;;;-4.16;60.61
43298;BME280;28892;55.640;37.532;2023-02-20T06:57:31;96732.56;;;-4.02;59.79
43298;BME280;28892;55.640;37.532;2023-02-20T07:00:05;96717.25;;;-3.96;59.34
43298;BME280;28892;55.640;37.532;2023-02-20T07:02:34;96722.47;;;-3.87;59.24
43298;BME280;28892;55.640;37.532;2023-02-20T07:05:03;96727.06;;;-3.81;58.79
43298;BME280;28892;55.640;37.532;2023-02-20T07:07:29;96727.56;;;-4.04;58.75
43298;BME280;28892;55.640;37.532;2023-02-20T07:09:55;96736.66;;;-4.00;59.04
43298;BME280;28892;55.640;37.532;2023-02-20T07:12:21;96730.19;;;-3.96;59.05
43298;BME280;28892;55.640;37.532;2023-02-20T07:14:49;96724.31;;;-3.80;59.28
43298;BME280;28892;55.640;37.532;2023-02-20T07:17:16;96718.00;;;-3.77;58.41
43298;BME280;28892;55.640;37.532;2023-02-20T07:19:44;96734.38;;;-3.76;58.69
43298;BME280;28892;55.640;37.532;2023-02-20T07:22:12;96723.69;;;-4.00;58.85
43298;BME280;28892;55.640;37.532;2023-02-20T07:24:37;96723.06;;;-3.75;59.03
43298;BME280;28892;55.640;37.532;2023-02-20T07:27:07;96735.34;;;-3.77;58.57
43298;BME280;28892;55.640;37.532;2023-02-20T07:29:38;96736.78;;;-3.75;58.47
43298;BME280;28892;55.640;37.532;2023-02-20T07:32:06;96727.84;;;-3.81;58.90
43298;BME280;28892;55.640;37.532;2023-02-20T07:34:36;96720.47;;;-3.75;58.98
43298;BME280;28892;55.640;37.532;2023-02-20T07:37:02;96736.97;;;-3.50;58.83
43298;BME280;28892;55.640;37.532;2023-02-20T07:39:28;96727.81;;;-3.28;59.25
43298;BME280;28892;55.640;37.532;2023-02-20T07:41:54;96730.75;;;-3.23;57.06
43298;BME280;28892;55.640;37.532;2023-02-20T07:44:42;96745.59;;;-2.98;57.26
43298;BME280;28892;55.640;37.532;2023-02-20T07:47:09;96726.94;;;-3.45;57.69
43298;BME280;28892;55.640;37.532;2023-02-20T07:49:34;96742.66;;;-3.38;57.52
43298;BME280;28892;55.640;37.532;2023-02-20T07:52:00;96747.13;;;-3.22;57.44
43298;BME280;28892;55.640;37.532;2023-02-20T07:54:29;96737.94;;;-3.43;57.66
43298;BME280;28892;55.640;37.532;2023-02-20T07:56:55;96749.19;;;-3.34;57.97
43298;BME280;28892;55.640;37.532;2023-02-20T07:59:21;96743.41;;;-3.54;57.93
43298;BME280;28892;55.640;37.532;2023-02-20T08:01:47;96754.13;;;-3.49;58.18
43298;BME280;28892;55.640;37.532;2023-02-20T08:04:14;96762.66;;;-3.30;57.82
43298;BME280;28892;55.640;37.532;2023-02-20T08:06:43;96755.50;;;-3.37;57.21
43298;BME280;28892;55.640;37.532;2023-02-20T08:09:09;96754.66;;;-3.45;57.52
43298;BME280;28892;55.640;37.532;2023-02-20T08:11:35;96742.16;;;-3.42;56.94
43298;BME280;28892;55.640;37.532;2023-02-20T08:14:05;96751.03;;;-3.53;57.24
43298;BME280;28892;55.640;37.532;2023-02-20T08:16:32;96754.94;;;-3.48;57.43
43298;BME280;28892;55.640;37.532;2023-02-20T08:18:58;96764.66;;;-3.16;57.54
43298;BME280;28892;55.640;37.532;2023-02-20T08:21:24;96773.44;;;-3.09;56.99
43298;BME280;28892;55.640;37.532;2023-02-20T08:23:50;96771.13;;;-2.77;55.61
43298;BME280;28892;55.640;37.532;2023-02-20T08:26:18;96757.63;;;-2.89;55.54
43298;BME280;28892;55.640;37.532;2023-02-20T08:28:46;96768.97;;;-3.33;56.27
43298;BME280;28892;55.640;37.532;2023-02-20T08:31:13;96772.63;;;-3.09;55.99
43298;BME280;28892;55.640;37.532;2023-02-20T08:33:38;96767.22;;;-3.24;55.80
43298;BME280;28892;55.640;37.532;2023-02-20T08:36:08;96765.56;;;-3.60;56.15
43298;BME280;28892;55.640;37.532;2023-02-20T08:38:36;96774.31;;;-3.61;57.03
43298;BME280;28892;55.640;37.532;2023-02-20T08:41:15;96785.63;;;-3.35;57.13
43298;BME280;28892;55.640;37.532;2023-02-20T08:43:42;96790.03;;;-3.28;56.86
43298;BME280;28892;55.640;37.532;2023-02-20T08:46:09;96791.38;;;-3.24;57.17
43298;BME280;28892;55.640;37.532;2023-02-20T08:48:35;96795.28;;;-3.19;57.12
43298;BME280;28892;55.640;37.532;2023-02-20T08:51:07;96787.69;;;-3.13;57.14
43298;BME280;28892;55.640;37.532;2023-02-20T08:53:34;96790.66;;;-2.99;56.90
43298;BME280;28892;55.640;37.532;2023-02-20T08:56:01;96786.69;;;-2.77;56.45
43298;BME280;28892;55.640;37.532;2023-02-20T08:58:29;96787.41;;;-2.50;56.05
43298;BME280;28892;55.640;37.532;2023-02-20T09:00:55;96770.69;;;-2.64;55.00
43298;BME280;28892;55.640;37.532;2023-02-20T09:03:21;96774.91;;;-2.63;55.73
43298;BME280;28892;55.640;37.532;2023-02-20T09:05:47;96769.53;;;-2.70;55.61
43298;BME280;28892;55.640;37.532;2023-02-20T09:08:13;96778.94;;;-2.69;55.29
43298;BME280;28892;55.640;37.532;2023-02-20T09:10:42;96770.16;;;-2.76;55.62
43298;BME280;28892;55.640;37.532;2023-02-20T09:13:41;96759.38;;;-2.30;55.40
43298;BME280;28892;55.640;37.532;2023-02-20T09:17:10;96778.84;;;-2.26;54.47
43298;BME280;28892;55.640;37.532;2023-02-20T09:19:35;96777.66;;;-2.56;54.69
43298;BME280;28892;55.640;37.532;2023-02-20T09:22:01;96774.91;;;-2.55;54.91
43298;BME280;28892;55.640;37.532;2023-02-20T09:24:27;96785.13;;;-2.53;54.83
43298;BME280;28892;55.640;37.532;2023-02-20T09:27:19;96778.00;;;-2.43;55.14
43298;BME280;28892;55.640;37.532;2023-02-20T09:29:51;96787.91;;;-2.55;55.64
43298;BME280;28892;55.640;37.532;2023-02-20T09:32:22;96786.13;;;-2.46;55.20
43298;BME280;28892;55.640;37.532;2023-02-20T09:34:48;96780.13;;;-2.55;55.46
43298;BME280;28892;55.640;37.532;2023-02-20T09:37:17;96782.88;;;-2.40;55.89
43298;BME280;28892;55.640;37.532;2023-02-20T09:39:43;96784.22;;;-2.27;56.38
43298;BME280;28892;55.640;37.532;2023-02-20T09:42:22;96790.41;;;-1.95;56.49
43298;BME280;28892;55.640;37.532;2023-02-20T09:45:10;96788.75;;;-1.79;55.62
43298;BME280;28892;55.640;37.532;2023-02-20T09:47:44;96778.53;;;-1.73;54.81
43298;BME280;28892;55.640;37.532;2023-02-20T09:53:22;96773.75;;;-1.44;52.89
43298;BME280;28892;55.640;37.532;2023-02-20T09:55:55;96760.66;;;-1.67;53.27
43298;BME280;28892;55.640;37.532;2023-02-20T09:58:44;96771.06;;;-2.01;53.63
43298;BME280;28892;55.640;37.532;2023-02-20T10:01:18;96779.81;;;-2.27;54.29
43298;BME280;28892;55.640;37.532;2023-02-20T10:03:58;96788.25;;;-2.25;54.44
43298;BME280;28892;55.640;37.532;2023-02-20T10:06:31;96789.22;;;-2.42;55.48
43298;BME280;28892;55.640;37.532;2023-02-20T10:08:57;96763.88;;;-2.65;55.45
43298;BME280;28892;55.640;37.532;2023-02-20T10:14:31;96769.41;;;-2.35;56.57
43298;BME280;28892;55.640;37.532;2023-02-20T10:17:22;96774.31;;;-1.90;55.19
43298;BME280;28892;55.640;37.532;2023-02-20T10:25:45;96775.59;;;-2.03;54.22
43298;BME280;28892;55.640;37.532;2023-02-20T10:28:18;96762.94;;;-2.14;54.28
43298;BME280;28892;55.640;37.532;2023-02-20T10:33:49;96771.38;;;-2.29;55.46
43298;BME280;28892;55.640;37.532;2023-02-20T10:36:25;96771.22;;;-2.27;55.56
43298;BME280;28892;55.640;37.532;2023-02-20T10:39:08;96778.03;;;-2.09;55.36
43298;BME280;28892;55.640;37.532;2023-02-20T10:42:00;96766.19;;;-2.04;55.47
43298;BME280;28892;55.640;37.532;2023-02-20T10:44:48;96767.81;;;-1.94;54.74
43298;BME280;28892;55.640;37.532;2023-02-20T10:47:45;96777.72;;;-1.73;54.76
43298;BME280;28892;55.640;37.532;2023-02-20T10:50:40;96769.91;;;-1.65;54.53
43298;BME280;28892;55.640;37.532;2023-02-20T10:53:17;96769.75;;;-1.63;54.23
43298;BME280;28892;55.640;37.532;2023-02-20T10:58:44;96769.69;;;-1.38;53.26
43298;BME280;28892;55.640;37.532;2023-02-20T11:01:18;96769.81;;;-1.32;51.93
43298;BME280;28892;55.640;37.532;2023-02-20T11:04:40;96766.44;;;-1.41;53.48
43298;BME280;28892;55.640;37.532;2023-02-20T11:06:54;96767.63;;;-1.76;53.71
43298;BME280;28892;55.640;37.532;2023-02-20T11:09:21;96778.53;;;-2.31;54.16
43298;BME280;28892;55.640;37.532;2023-02-20T11:11:48;96778.81;;;-2.50;53.93
43298;BME280;28892;55.640;37.532;2023-02-20T11:17:05;96765.38;;;-1.88;54.29
43298;BME280;28892;55.640;37.532;2023-02-20T11:19:40;96762.44;;;-1.85;53.97
43298;BME280;28892;55.640;37.532;2023-02-20T11:22:10;96754.63;;;-1.68;53.62
43298;BME280;28892;55.640;37.532;2023-02-20T11:24:40;96764.22;;;-1.69;52.96
43298;BME280;28892;55.640;37.532;2023-02-20T11:27:14;96767.00;;;-1.78;53.78
43298;BME280;28892;55.640;37.532;2023-02-20T11:33:22;96769.88;;;-1.40;53.59
43298;BME280;28892;55.640;37.532;2023-02-20T11:36:07;96764.06;;;-1.59;53.25
43298;BME280;28892;55.640;37.532;2023-02-20T11:38:37;96763.41;;;-1.61;53.63
43298;BME280;28892;55.640;37.532;2023-02-20T11:43:43;96784.88;;;-1.84;52.76
43298;BME280;28892;55.640;37.532;2023-02-20T11:46:23;96790.06;;;-1.92;53.87
43298;BME280;28892;55.640;37.532;2023-02-20T11:49:05;96794.78;;;-2.04;54.09
43298;BME280;28892;55.640;37.532;2023-02-20T11:56:35;96785.69;;;-1.83;53.86
43298;BME280;28892;55.640;37.532;2023-02-20T12:02:11;96795.25;;;-1.67;55.07
43298;BME280;28892;55.640;37.532;2023-02-20T12:04:44;96791.50;;;-1.56;54.41
43298;BME280;28892;55.640;37.532;2023-02-20T12:07:21;96790.03;;;-1.59;53.76
43298;BME280;28892;55.640;37.532;2023-02-20T12:09:54;96791.38;;;-1.79;53.06
43298;BME280;28892;55.640;37.532;2023-02-20T12:12:21;96780.00;;;-2.03;53.17
43298;BME280;28892;55.640;37.532;2023-02-20T12:14:51;96785.34;;;-2.21;53.62
43298;BME280;28892;55.640;37.532;2023-02-20T12:17:30;96789.72;;;-2.22;53.89
43298;BME280;28892;55.640;37.532;2023-02-20T12:20:08;96790.97;;;-2.51;54.65
43298;BME280;28892;55.640;37.532;2023-02-20T12:22:44;96788.66;;;-2.62;54.76
43298;BME280;28892;55.640;37.532;2023-02-20T12:25:35;96799.56;;;-2.50;55.19
43298;BME280;28892;55.640;37.532;2023-02-20T12:28:35;96790.59;;;-2.73;55.44
43298;BME280;28892;55.640;37.532;2023-02-20T12:31:16;96793.34;;;-2.74;55.69
43298;BME280;28892;55.640;37.532;2023-02-20T12:34:13;96795.31;;;-2.68;55.30
43298;BME280;28892;55.640;37.532;2023-02-20T12:37:02;96792.53;;;-2.75;55.03
43298;BME280;28892;55.640;37.532;2023-02-20T12:42:47;96798.25;;;-2.63;55.81
43298;BME280;28892;55.640;37.532;2023-02-20T12:45:39;96799.53;;;-2.67;55.59
43298;BME280;28892;55.640;37.532;2023-02-20T12:59:56;96795.75;;;-3.51;55.59
43298;BME280;28892;55.640;37.532;2023-02-20T13:05:00;96793.25;;;-3.34;56.26
43298;BME280;28892;55.640;37.532;2023-02-20T13:08:00;96783.31;;;-3.12;56.16
43298;BME280;28892;55.640;37.532;2023-02-20T13:10:42;96781.28;;;-3.35;56.36
43298;BME280;28892;55.640;37.532;2023-02-20T13:13:10;96792.81;;;-3.29;56.61
43298;BME280;28892;55.640;37.532;2023-02-20T13:18:43;96787.16;;;-3.16;56.90
43298;BME280;28892;55.640;37.532;2023-02-20T13:21:16;96787.16;;;-3.25;56.43
43298;BME280;28892;55.640;37.532;2023-02-20T13:23:43;96798.41;;;-3.42;56.68
43298;BME280;28892;55.640;37.532;2023-02-20T13:29:25;96796.50;;;-3.32;56.74
43298;BME280;28892;55.640;37.532;2023-02-20T13:34:41;96789.56;;;-3.23;55.96
43298;BME280;28892;55.640;37.532;2023-02-20T13:48:54;96786.00;;;-3.30;55.73
43298;BME280;28892;55.640;37.532;2023-02-20T13:57:11;96810.31;;;-3.23;55.71
43298;BME280;28892;55.640;37.532;2023-02-20T13:59:42;96791.19;;;-3.57;55.89
43298;BME280;28892;55.640;37.532;2023-02-20T14:02:22;96808.06;;;-3.53;56.21
43298;BME280;28892;55.640;37.532;2023-02-20T14:05:00;96807.91;;;-3.51;56.19
43298;BME280;28892;55.640;37.532;2023-02-20T14:07:37;96789.72;;;-3.59;56.34
43298;BME280;28892;55.640;37.532;2023-02-20T14:17:20;96786.22;;;-3.42;55.96
43298;BME280;28892;55.640;37.532;2023-02-20T14:19:55;96803.31;;;-3.57;56.32
43298;BME280;28892;55.640;37.532;2023-02-20T14:22:32;96794.56;;;-3.56;56.74
43298;BME280;28892;55.640;37.532;2023-02-20T14:28:14;96796.72;;;-3.52;57.05
43298;BME280;28892;55.640;37.532;2023-02-20T14:30:40;96810.50;;;-3.69;56.83
43298;BME280;28892;55.640;37.532;2023-02-20T14:33:23;96813.03;;;-3.59;57.46
43298;BME280;28892;55.640;37.532;2023-02-20T14:41:24;96816.72;;;-3.62;57.08
43298;BME280;28892;55.640;37.532;2023-02-20T14:44:01;96803.63;;;-3.60;57.28
43298;BME280;28892;55.640;37.532;2023-02-20T14:46:34;96806.44;;;-3.54;56.84
43298;BME280;28892;55.640;37.532;2023-02-20T14:49:11;96817.41;;;-3.78;57.01
43298;BME280;28892;55.640;37.532;2023-02-20T14:51:41;96822.75;;;-3.80;57.12
43298;BME280;28892;55.640;37.532;2023-02-20T14:54:24;96816.38;;;-3.67;56.90
43298;BME280;28892;55.640;37.532;2023-02-20T14:56:59;96829.06;;;-3.82;56.93
43298;BME280;28892;55.640;37.532;2023-02-20T14:59:31;96822.75;;;-3.80;56.67
43298;BME280;28892;55.640;37.532;2023-02-20T15:04:26;96828.97;;;-3.72;57.17
43298;BME280;28892;55.640;37.532;2023-02-20T15:06:59;96816.47;;;-3.77;56.94
43298;BME280;28892;55.640;37.532;2023-02-20T15:09:41;96828.16;;;-3.73;57.07
43298;BME280;28892;55.640;37.532;2023-02-20T15:12:21;96829.56;;;-3.79;57.68
43298;BME280;28892;55.640;37.532;2023-02-20T15:14:55;96823.06;;;-3.83;57.89
43298;BME280;28892;55.640;37.532;2023-02-20T15:17:29;96820.66;;;-3.76;57.82
43298;BME280;28892;55.640;37.532;2023-02-20T15:25:41;96825.28;;;-3.88;58.26
43298;BME280;28892;55.640;37.532;2023-02-20T15:31:02;96820.00;;;-3.78;58.55
43298;BME280;28892;55.640;37.532;2023-02-20T15:33:30;96821.13;;;-3.81;58.17